FDB4MA OMDB-LDZA
Flight info
| Callsign | FDB4MA |
|---|---|
| Flight time | 5h 46m |
| Altitude | 34000 |
| Route | RIDAP DCT DENSA P574 ROTAL M317 IMGOD L319 RADID W3 KIXOB L223 UMH G781 BONAM UT366 VAN UT367 ESEPO UL852 NEGEM Q6 ERDOM Y520 UTEKA DCT ENUPU DCT TEBLI |
| Aircraft | B738/M-SDE2E3FGHIRWXY/LB1 |
Departure
| Time | 2026-04-24 01:14 |
|---|---|
| Airport | Dubai International Airport (OMDB) |
Arrival
| Time | 2026-04-24 07:00 |
|---|---|
| Airport | Zagreb Franjo Tuđman International Airport (LDZA) |
| Time | Latitude | Longitude | Altitude | Speed | Heading |
|---|---|---|---|---|---|
| 2026-04-24 00:48 | 25.26574 | 55.34009 | 21 ft | 0 kts | 31° |
| 2026-04-24 01:00 | 25.26569 | 55.34006 | 20 ft | 2 kts | 31° |
| 2026-04-24 01:00 | 25.26555 | 55.33996 | 20 ft | 2 kts | 31° |
| 2026-04-24 01:00 | 25.26541 | 55.33987 | 20 ft | 2 kts | 32° |
| 2026-04-24 01:01 | 25.26527 | 55.33977 | 22 ft | 2 kts | 32° |
| 2026-04-24 01:01 | 25.26513 | 55.33967 | 24 ft | 2 kts | 35° |
| 2026-04-24 01:01 | 25.26500 | 55.33956 | 23 ft | 2 kts | 45° |
| 2026-04-24 01:01 | 25.26493 | 55.33940 | 25 ft | 2 kts | 115° |
| 2026-04-24 01:02 | 25.26496 | 55.33935 | 24 ft | 0 kts | 121° |
| 2026-04-24 01:03 | 25.26495 | 55.33937 | 24 ft | 1 kts | 121° |
| 2026-04-24 01:03 | 25.26486 | 55.33953 | 22 ft | 5 kts | 122° |
| 2026-04-24 01:04 | 25.26456 | 55.34005 | 20 ft | 11 kts | 122° |
| 2026-04-24 01:04 | 25.26408 | 55.34091 | 21 ft | 16 kts | 122° |
| 2026-04-24 01:04 | 25.26355 | 55.34157 | 20 ft | 9 kts | 171° |
| 2026-04-24 01:04 | 25.26287 | 55.34182 | 20 ft | 13 kts | 135° |
| 2026-04-24 01:05 | 25.26233 | 55.34276 | 20 ft | 16 kts | 122° |
| 2026-04-24 01:05 | 25.26169 | 55.34391 | 22 ft | 19 kts | 123° |
| 2026-04-24 01:05 | 25.26094 | 55.34521 | 21 ft | 21 kts | 120° |
| 2026-04-24 01:05 | 25.26089 | 55.34620 | 20 ft | 13 kts | 55° |
| 2026-04-24 01:06 | 25.26159 | 55.34703 | 20 ft | 16 kts | 46° |
| 2026-04-24 01:06 | 25.26253 | 55.34787 | 21 ft | 19 kts | 30° |
| 2026-04-24 01:06 | 25.26353 | 55.34869 | 22 ft | 16 kts | 71° |
| 2026-04-24 01:06 | 25.26317 | 55.34976 | 27 ft | 16 kts | 118° |
| 2026-04-24 01:07 | 25.26252 | 55.35090 | 23 ft | 19 kts | 120° |
| 2026-04-24 01:07 | 25.26174 | 55.35226 | 25 ft | 22 kts | 122° |
| 2026-04-24 01:07 | 25.26086 | 55.35383 | 24 ft | 26 kts | 122° |
| 2026-04-24 01:07 | 25.25990 | 55.35554 | 23 ft | 26 kts | 121° |
| 2026-04-24 01:08 | 25.25898 | 55.35717 | 22 ft | 24 kts | 121° |
| 2026-04-24 01:08 | 25.25813 | 55.35871 | 25 ft | 23 kts | 121° |
| 2026-04-24 01:08 | 25.25729 | 55.36017 | 23 ft | 22 kts | 122° |
| 2026-04-24 01:08 | 25.25650 | 55.36159 | 24 ft | 22 kts | 122° |
| 2026-04-24 01:09 | 25.25563 | 55.36313 | 24 ft | 25 kts | 122° |
| 2026-04-24 01:09 | 25.25469 | 55.36480 | 26 ft | 26 kts | 122° |
| 2026-04-24 01:09 | 25.25370 | 55.36655 | 24 ft | 28 kts | 122° |
| 2026-04-24 01:09 | 25.25269 | 55.36837 | 23 ft | 27 kts | 121° |
| 2026-04-24 01:10 | 25.25171 | 55.37010 | 24 ft | 25 kts | 121° |
| 2026-04-24 01:10 | 25.25081 | 55.37171 | 25 ft | 24 kts | 122° |
| 2026-04-24 01:10 | 25.24996 | 55.37322 | 25 ft | 23 kts | 122° |
| 2026-04-24 01:10 | 25.24914 | 55.37469 | 26 ft | 22 kts | 121° |
| 2026-04-24 01:11 | 25.24885 | 55.37575 | 24 ft | 8 kts | 65° |
| 2026-04-24 01:11 | 25.24891 | 55.37584 | 24 ft | 0 kts | 56° |
| 2026-04-24 01:12 | 25.24896 | 55.37590 | 29 ft | 3 kts | 44° |
| 2026-04-24 01:12 | 25.24926 | 55.37604 | 28 ft | 6 kts | 5° |
| 2026-04-24 01:12 | 25.24974 | 55.37576 | 28 ft | 10 kts | 331° |
| 2026-04-24 01:12 | 25.25044 | 55.37532 | 31 ft | 14 kts | 328° |
| 2026-04-24 01:13 | 25.25129 | 55.37445 | 30 ft | 20 kts | 304° |
| 2026-04-24 01:13 | 25.25305 | 55.37127 | 29 ft | 83 kts | 301° |
| 2026-04-24 01:13 | 25.25725 | 55.36376 | 29 ft | 145 kts | 300° |
| 2026-04-24 01:13 | 25.26350 | 55.35269 | 107 ft | 188 kts | 304° |
| 2026-04-24 01:14 | 25.27091 | 55.34022 | 751 ft | 194 kts | 304° |
| 2026-04-24 01:14 | 25.27821 | 55.32718 | 1413 ft | 204 kts | 301° |
| 2026-04-24 01:14 | 25.28575 | 55.31324 | 1904 ft | 221 kts | 302° |
| 2026-04-24 01:14 | 25.29397 | 55.29820 | 2154 ft | 234 kts | 301° |
| 2026-04-24 01:15 | 25.30278 | 55.28281 | 2587 ft | 238 kts | 305° |
| 2026-04-24 01:15 | 25.31232 | 55.26785 | 3128 ft | 238 kts | 305° |
| 2026-04-24 01:15 | 25.32187 | 55.25302 | 3701 ft | 237 kts | 304° |
| 2026-04-24 01:15 | 25.33141 | 55.23819 | 4266 ft | 237 kts | 304° |
| 2026-04-24 01:16 | 25.34091 | 55.22333 | 4810 ft | 236 kts | 303° |
| 2026-04-24 01:16 | 25.35041 | 55.20842 | 5302 ft | 239 kts | 303° |
| 2026-04-24 01:16 | 25.35770 | 55.19210 | 5735 ft | 239 kts | 279° |
| 2026-04-24 01:16 | 25.35883 | 55.17346 | 6085 ft | 246 kts | 267° |
| 2026-04-24 01:17 | 25.35820 | 55.15538 | 6512 ft | 249 kts | 265° |
| 2026-04-24 01:17 | 25.35728 | 55.13651 | 7024 ft | 250 kts | 265° |
| 2026-04-24 01:17 | 25.35630 | 55.11634 | 7266 ft | 268 kts | 265° |
| 2026-04-24 01:17 | 25.35540 | 55.09604 | 7784 ft | 273 kts | 265° |
| 2026-04-24 01:18 | 25.35455 | 55.07531 | 8434 ft | 274 kts | 265° |
| 2026-04-24 01:18 | 25.35373 | 55.05431 | 9089 ft | 275 kts | 265° |
| 2026-04-24 01:18 | 25.35292 | 55.03308 | 9725 ft | 278 kts | 265° |
| 2026-04-24 01:18 | 25.35212 | 55.01164 | 10281 ft | 282 kts | 265° |
| 2026-04-24 01:19 | 25.35129 | 54.98923 | 10441 ft | 302 kts | 266° |
| 2026-04-24 01:19 | 25.35045 | 54.96657 | 10578 ft | 320 kts | 266° |
| 2026-04-24 01:19 | 25.34947 | 54.94011 | 10724 ft | 338 kts | 266° |
| 2026-04-24 01:19 | 25.34877 | 54.91354 | 10845 ft | 355 kts | 270° |
| 2026-04-24 01:20 | 25.35358 | 54.88629 | 11122 ft | 367 kts | 285° |
| 2026-04-24 01:20 | 25.36169 | 54.85936 | 11639 ft | 370 kts | 286° |
| 2026-04-24 01:20 | 25.36982 | 54.83236 | 12197 ft | 371 kts | 286° |
| 2026-04-24 01:20 | 25.37783 | 54.80518 | 12714 ft | 373 kts | 286° |
| 2026-04-24 01:21 | 25.38575 | 54.77782 | 13218 ft | 375 kts | 286° |
| 2026-04-24 01:21 | 25.39365 | 54.75024 | 13723 ft | 377 kts | 286° |
| 2026-04-24 01:21 | 25.40157 | 54.72248 | 14167 ft | 380 kts | 286° |
| 2026-04-24 01:21 | 25.40954 | 54.69450 | 14593 ft | 383 kts | 286° |
| 2026-04-24 01:22 | 25.41791 | 54.66646 | 15024 ft | 386 kts | 291° |
| 2026-04-24 01:22 | 25.43238 | 54.64124 | 15421 ft | 394 kts | 311° |
| 2026-04-24 01:22 | 25.45388 | 54.62224 | 15857 ft | 400 kts | 328° |
| 2026-04-24 01:22 | 25.47991 | 54.61079 | 16245 ft | 409 kts | 346° |
| 2026-04-24 01:23 | 25.50827 | 54.60655 | 16677 ft | 413 kts | 351° |
| 2026-04-24 01:23 | 25.53702 | 54.60339 | 17066 ft | 417 kts | 352° |
| 2026-04-24 01:23 | 25.56596 | 54.60046 | 17449 ft | 419 kts | 352° |
| 2026-04-24 01:23 | 25.59510 | 54.59750 | 17849 ft | 421 kts | 352° |
| 2026-04-24 01:24 | 25.62437 | 54.59441 | 18226 ft | 424 kts | 352° |
| 2026-04-24 01:24 | 25.65380 | 54.59119 | 18554 ft | 426 kts | 351° |
| 2026-04-24 01:24 | 25.68329 | 54.58787 | 18887 ft | 428 kts | 351° |
| 2026-04-24 01:24 | 25.71299 | 54.58447 | 19216 ft | 430 kts | 351° |
| 2026-04-24 01:25 | 25.74277 | 54.58103 | 19543 ft | 432 kts | 351° |
| 2026-04-24 01:25 | 25.77270 | 54.57756 | 19875 ft | 433 kts | 351° |
| 2026-04-24 01:25 | 25.80276 | 54.57407 | 20192 ft | 435 kts | 351° |
| 2026-04-24 01:25 | 25.83255 | 54.57061 | 20500 ft | 437 kts | 351° |
| 2026-04-24 01:26 | 25.86289 | 54.56708 | 20806 ft | 439 kts | 351° |
| 2026-04-24 01:26 | 25.89341 | 54.56354 | 21110 ft | 441 kts | 351° |
| 2026-04-24 01:26 | 25.92397 | 54.55999 | 21407 ft | 443 kts | 351° |
| 2026-04-24 01:26 | 25.95472 | 54.55642 | 21698 ft | 445 kts | 351° |
| 2026-04-24 01:27 | 25.98563 | 54.55282 | 21981 ft | 447 kts | 351° |
| 2026-04-24 01:27 | 26.01660 | 54.54922 | 22255 ft | 449 kts | 351° |
| 2026-04-24 01:27 | 26.04777 | 54.54559 | 22534 ft | 451 kts | 351° |
| 2026-04-24 01:27 | 26.07905 | 54.54195 | 22799 ft | 453 kts | 351° |
| 2026-04-24 01:28 | 26.11048 | 54.53829 | 23063 ft | 455 kts | 351° |
| 2026-04-24 01:28 | 26.14206 | 54.53460 | 23334 ft | 457 kts | 351° |
| 2026-04-24 01:28 | 26.17364 | 54.53092 | 23551 ft | 459 kts | 351° |
| 2026-04-24 01:28 | 26.20554 | 54.52720 | 23775 ft | 460 kts | 351° |
| 2026-04-24 01:29 | 26.23740 | 54.52348 | 24000 ft | 461 kts | 351° |
| 2026-04-24 01:29 | 26.26940 | 54.51974 | 24218 ft | 463 kts | 351° |
| 2026-04-24 01:29 | 26.30149 | 54.51599 | 24421 ft | 464 kts | 351° |
| 2026-04-24 01:29 | 26.33363 | 54.51223 | 24624 ft | 466 kts | 351° |
| 2026-04-24 01:30 | 26.36598 | 54.50844 | 24841 ft | 467 kts | 351° |
| 2026-04-24 01:30 | 26.39833 | 54.50466 | 25050 ft | 468 kts | 351° |
| 2026-04-24 01:30 | 26.43073 | 54.50086 | 25251 ft | 470 kts | 351° |
| 2026-04-24 01:30 | 26.46336 | 54.49704 | 25448 ft | 471 kts | 351° |
| 2026-04-24 01:31 | 26.49599 | 54.49319 | 25638 ft | 473 kts | 349° |
| 2026-04-24 01:31 | 26.52783 | 54.48656 | 25826 ft | 470 kts | 341° |
| 2026-04-24 01:31 | 26.55863 | 54.47480 | 26015 ft | 467 kts | 332° |
| 2026-04-24 01:31 | 26.58753 | 54.45847 | 26215 ft | 466 kts | 328° |
| 2026-04-24 01:32 | 26.61611 | 54.44131 | 26415 ft | 467 kts | 328° |
| 2026-04-24 01:32 | 26.64467 | 54.42402 | 26595 ft | 468 kts | 328° |
| 2026-04-24 01:32 | 26.67338 | 54.40670 | 26789 ft | 469 kts | 328° |
| 2026-04-24 01:32 | 26.70219 | 54.38947 | 26971 ft | 471 kts | 328° |
| 2026-04-24 01:33 | 26.73118 | 54.37225 | 27150 ft | 472 kts | 328° |
| 2026-04-24 01:33 | 26.76014 | 54.35512 | 27395 ft | 472 kts | 328° |
| 2026-04-24 01:33 | 26.78911 | 54.33805 | 27707 ft | 470 kts | 328° |
| 2026-04-24 01:33 | 26.81798 | 54.32103 | 28024 ft | 468 kts | 328° |
| 2026-04-24 01:34 | 26.83710 | 54.30976 | 28196 ft | 468 kts | 328° |
| 2026-04-24 01:34 | 26.86592 | 54.29276 | 28444 ft | 468 kts | 328° |
| 2026-04-24 01:34 | 26.89472 | 54.27575 | 28723 ft | 468 kts | 328° |
| 2026-04-24 01:34 | 26.92343 | 54.25878 | 29050 ft | 466 kts | 328° |
| 2026-04-24 01:35 | 26.95208 | 54.24183 | 29350 ft | 465 kts | 328° |
| 2026-04-24 01:35 | 26.98065 | 54.22491 | 29624 ft | 465 kts | 328° |
| 2026-04-24 01:35 | 27.00922 | 54.20799 | 29893 ft | 464 kts | 328° |
| 2026-04-24 01:35 | 27.03757 | 54.19119 | 30147 ft | 463 kts | 327° |
| 2026-04-24 01:36 | 27.06605 | 54.17430 | 30442 ft | 461 kts | 327° |
| 2026-04-24 01:36 | 27.09430 | 54.15754 | 30797 ft | 458 kts | 327° |
| 2026-04-24 01:36 | 27.12233 | 54.14092 | 31224 ft | 452 kts | 327° |
| 2026-04-24 01:36 | 27.14991 | 54.12456 | 31661 ft | 447 kts | 327° |
| 2026-04-24 01:37 | 27.17738 | 54.10823 | 31897 ft | 446 kts | 327° |
| 2026-04-24 01:37 | 27.20488 | 54.09185 | 32077 ft | 447 kts | 327° |
| 2026-04-24 01:37 | 27.23228 | 54.07553 | 32344 ft | 445 kts | 327° |
| 2026-04-24 01:37 | 27.25953 | 54.05931 | 32711 ft | 441 kts | 326° |
| 2026-04-24 01:38 | 27.28647 | 54.04327 | 33034 ft | 437 kts | 326° |
| 2026-04-24 01:38 | 27.31331 | 54.02727 | 33291 ft | 436 kts | 326° |
| 2026-04-24 01:38 | 27.34009 | 54.01128 | 33495 ft | 435 kts | 326° |
| 2026-04-24 01:38 | 27.36680 | 53.99533 | 33679 ft | 435 kts | 326° |
| 2026-04-24 01:39 | 27.39349 | 53.97939 | 33902 ft | 434 kts | 326° |
| 2026-04-24 01:39 | 27.44685 | 53.94748 | 33981 ft | 434 kts | 326° |
| 2026-04-24 01:40 | 27.50014 | 53.91561 | 33985 ft | 432 kts | 326° |
| 2026-04-24 01:40 | 27.55112 | 53.88101 | 33987 ft | 423 kts | 316° |
| 2026-04-24 01:41 | 27.59296 | 53.83566 | 34011 ft | 416 kts | 309° |
| 2026-04-24 01:41 | 27.63353 | 53.78925 | 34012 ft | 416 kts | 309° |
| 2026-04-24 01:42 | 27.67425 | 53.74304 | 34006 ft | 415 kts | 309° |
| 2026-04-24 01:42 | 27.71512 | 53.69684 | 34015 ft | 416 kts | 309° |
| 2026-04-24 01:43 | 27.75577 | 53.65089 | 34023 ft | 416 kts | 309° |
| 2026-04-24 01:43 | 27.79669 | 53.60458 | 34023 ft | 417 kts | 309° |
| 2026-04-24 01:44 | 27.83761 | 53.55821 | 34021 ft | 417 kts | 309° |
| 2026-04-24 01:44 | 27.87853 | 53.51179 | 34024 ft | 417 kts | 309° |
| 2026-04-24 01:45 | 27.91941 | 53.46536 | 34023 ft | 417 kts | 309° |
| 2026-04-24 01:45 | 27.96023 | 53.41891 | 34028 ft | 416 kts | 309° |
| 2026-04-24 01:46 | 28.00126 | 53.37212 | 34035 ft | 416 kts | 309° |
| 2026-04-24 01:46 | 28.04125 | 53.32648 | 34034 ft | 416 kts | 309° |
| 2026-04-24 01:47 | 28.08191 | 53.28003 | 34035 ft | 415 kts | 309° |
| 2026-04-24 01:47 | 28.12271 | 53.23335 | 34032 ft | 415 kts | 309° |
| 2026-04-24 01:48 | 28.16342 | 53.18673 | 34035 ft | 414 kts | 309° |
| 2026-04-24 01:48 | 28.20378 | 53.14045 | 34047 ft | 413 kts | 308° |
| 2026-04-24 01:49 | 28.24417 | 53.09409 | 34036 ft | 413 kts | 308° |
| 2026-04-24 01:49 | 28.28452 | 53.04771 | 34038 ft | 412 kts | 308° |
| 2026-04-24 01:50 | 28.32477 | 53.00139 | 34047 ft | 412 kts | 308° |
| 2026-04-24 01:50 | 28.36505 | 52.95499 | 34045 ft | 413 kts | 308° |
| 2026-04-24 01:51 | 28.40609 | 52.90905 | 34047 ft | 418 kts | 313° |
| 2026-04-24 01:51 | 28.45452 | 52.87102 | 34058 ft | 426 kts | 319° |
| 2026-04-24 01:52 | 28.50441 | 52.83443 | 34062 ft | 427 kts | 320° |
| 2026-04-24 01:52 | 28.55429 | 52.79756 | 34076 ft | 428 kts | 319° |
| 2026-04-24 01:53 | 28.60383 | 52.76065 | 34071 ft | 429 kts | 319° |
| 2026-04-24 01:53 | 28.65371 | 52.72335 | 34058 ft | 429 kts | 319° |
| 2026-04-24 01:54 | 28.70387 | 52.68578 | 34084 ft | 429 kts | 319° |
| 2026-04-24 01:54 | 28.75341 | 52.64864 | 34071 ft | 429 kts | 319° |
| 2026-04-24 01:55 | 28.80352 | 52.61103 | 34079 ft | 428 kts | 319° |
| 2026-04-24 01:55 | 28.85281 | 52.57400 | 34082 ft | 427 kts | 318° |
| 2026-04-24 01:56 | 28.90239 | 52.53670 | 34078 ft | 426 kts | 318° |
| 2026-04-24 01:56 | 28.95181 | 52.49948 | 34083 ft | 424 kts | 318° |
| 2026-04-24 01:57 | 29.00102 | 52.46238 | 34084 ft | 423 kts | 317° |
| 2026-04-24 01:57 | 29.05002 | 52.42539 | 34088 ft | 422 kts | 317° |
| 2026-04-24 01:58 | 29.09893 | 52.38841 | 34082 ft | 421 kts | 317° |
| 2026-04-24 01:58 | 29.14771 | 52.35150 | 34084 ft | 420 kts | 317° |
| 2026-04-24 01:59 | 29.19636 | 52.31463 | 34089 ft | 419 kts | 317° |
| 2026-04-24 01:59 | 29.24497 | 52.27776 | 34079 ft | 419 kts | 317° |
| 2026-04-24 02:00 | 29.29345 | 52.24096 | 34081 ft | 417 kts | 316° |
| 2026-04-24 02:00 | 29.34177 | 52.20423 | 34083 ft | 416 kts | 316° |
| 2026-04-24 02:01 | 29.38994 | 52.16756 | 34081 ft | 416 kts | 316° |
| 2026-04-24 02:01 | 29.43808 | 52.13086 | 34083 ft | 416 kts | 316° |
| 2026-04-24 02:02 | 29.48626 | 52.09410 | 34082 ft | 416 kts | 316° |
| 2026-04-24 02:02 | 29.53453 | 52.05722 | 34071 ft | 417 kts | 316° |
| 2026-04-24 02:03 | 29.60688 | 52.00188 | 34088 ft | 416 kts | 316° |
| 2026-04-24 02:03 | 29.65482 | 51.96517 | 34089 ft | 416 kts | 316° |
| 2026-04-24 02:04 | 29.70325 | 51.92801 | 34084 ft | 416 kts | 316° |
| 2026-04-24 02:04 | 29.75137 | 51.89103 | 34071 ft | 416 kts | 316° |
| 2026-04-24 02:05 | 29.79907 | 51.85432 | 34076 ft | 415 kts | 316° |
| 2026-04-24 02:05 | 29.84703 | 51.81736 | 34089 ft | 415 kts | 316° |
| 2026-04-24 02:06 | 29.89502 | 51.78030 | 34083 ft | 416 kts | 316° |
| 2026-04-24 02:06 | 29.94309 | 51.74317 | 34070 ft | 416 kts | 316° |
| 2026-04-24 02:07 | 29.99118 | 51.70599 | 34080 ft | 417 kts | 316° |
| 2026-04-24 02:07 | 30.03934 | 51.66870 | 34070 ft | 416 kts | 316° |
| 2026-04-24 02:08 | 30.08753 | 51.63132 | 34074 ft | 419 kts | 316° |
| 2026-04-24 02:08 | 30.13592 | 51.59376 | 34065 ft | 420 kts | 316° |
| 2026-04-24 02:09 | 30.18442 | 51.55607 | 34060 ft | 420 kts | 316° |
| 2026-04-24 02:09 | 30.23322 | 51.51875 | 34050 ft | 424 kts | 319° |
| 2026-04-24 02:10 | 30.25995 | 51.50337 | 34052 ft | 436 kts | 328° |
| 2026-04-24 02:10 | 30.28847 | 51.49103 | 34072 ft | 438 kts | 329° |
| 2026-04-24 02:10 | 30.34541 | 51.46667 | 34054 ft | 434 kts | 328° |
| 2026-04-24 02:11 | 30.39898 | 51.43817 | 34095 ft | 411 kts | 316° |
| 2026-04-24 02:11 | 30.44230 | 51.39705 | 34097 ft | 396 kts | 303° |
| 2026-04-24 02:12 | 30.47806 | 51.34830 | 34119 ft | 400 kts | 301° |
| 2026-04-24 02:12 | 30.51384 | 51.29907 | 34114 ft | 403 kts | 302° |
| 2026-04-24 02:13 | 30.55044 | 51.24901 | 34113 ft | 405 kts | 302° |
| 2026-04-24 02:13 | 30.58699 | 51.19913 | 34103 ft | 406 kts | 302° |
| 2026-04-24 02:14 | 30.62336 | 51.14947 | 34097 ft | 406 kts | 302° |
| 2026-04-24 02:14 | 30.65991 | 51.09951 | 34093 ft | 405 kts | 301° |
| 2026-04-24 02:15 | 30.69633 | 51.04966 | 34077 ft | 404 kts | 302° |
| 2026-04-24 02:15 | 30.73256 | 51.00000 | 34081 ft | 402 kts | 301° |
| 2026-04-24 02:16 | 30.76866 | 50.95045 | 34079 ft | 401 kts | 301° |
| 2026-04-24 02:16 | 30.80473 | 50.90084 | 34083 ft | 402 kts | 301° |
| 2026-04-24 02:17 | 30.84086 | 50.85110 | 34083 ft | 402 kts | 301° |
| 2026-04-24 02:17 | 30.87697 | 50.80135 | 34074 ft | 402 kts | 301° |
| 2026-04-24 02:18 | 30.91301 | 50.75163 | 34078 ft | 402 kts | 301° |
| 2026-04-24 02:18 | 30.94909 | 50.70177 | 34076 ft | 402 kts | 301° |
| 2026-04-24 02:19 | 30.98512 | 50.65192 | 34076 ft | 403 kts | 301° |
| 2026-04-24 02:19 | 31.02128 | 50.60183 | 34053 ft | 403 kts | 301° |
| 2026-04-24 02:20 | 31.05129 | 50.56022 | 34059 ft | 403 kts | 301° |
| 2026-04-24 02:20 | 31.09326 | 50.50195 | 34078 ft | 400 kts | 301° |
| 2026-04-24 02:21 | 31.12300 | 50.46059 | 34085 ft | 400 kts | 301° |
| 2026-04-24 02:21 | 31.16123 | 50.41255 | 34063 ft | 412 kts | 309° |
| 2026-04-24 02:22 | 31.20907 | 50.37359 | 34083 ft | 422 kts | 316° |
| 2026-04-24 02:22 | 31.25846 | 50.33622 | 34076 ft | 424 kts | 316° |
| 2026-04-24 02:23 | 31.30802 | 50.29841 | 34083 ft | 426 kts | 316° |
| 2026-04-24 02:23 | 31.35760 | 50.26028 | 34073 ft | 427 kts | 316° |
| 2026-04-24 02:24 | 31.40724 | 50.22195 | 34035 ft | 427 kts | 316° |
| 2026-04-24 02:24 | 31.45683 | 50.18374 | 34071 ft | 427 kts | 315° |
| 2026-04-24 02:25 | 31.50606 | 50.14560 | 34083 ft | 421 kts | 315° |
| 2026-04-24 02:25 | 31.55499 | 50.10758 | 34064 ft | 424 kts | 315° |
| 2026-04-24 02:26 | 31.60430 | 50.06928 | 34061 ft | 425 kts | 315° |
| 2026-04-24 02:26 | 31.65352 | 50.03104 | 34057 ft | 423 kts | 315° |
| 2026-04-24 02:27 | 31.70245 | 49.99304 | 34062 ft | 420 kts | 315° |
| 2026-04-24 02:27 | 31.75081 | 49.95537 | 34069 ft | 412 kts | 315° |
| 2026-04-24 02:28 | 31.79852 | 49.91809 | 34044 ft | 411 kts | 314° |
| 2026-04-24 02:28 | 31.84601 | 49.88097 | 34069 ft | 410 kts | 314° |
| 2026-04-24 02:29 | 31.89357 | 49.84375 | 34055 ft | 410 kts | 314° |
| 2026-04-24 02:29 | 31.94112 | 49.80648 | 34055 ft | 412 kts | 314° |
| 2026-04-24 02:30 | 31.98882 | 49.76903 | 34048 ft | 413 kts | 314° |
| 2026-04-24 02:30 | 32.03674 | 49.73136 | 34049 ft | 414 kts | 314° |
| 2026-04-24 02:31 | 32.08472 | 49.69368 | 34025 ft | 416 kts | 314° |
| 2026-04-24 02:31 | 32.13233 | 49.65622 | 34036 ft | 413 kts | 315° |
| 2026-04-24 02:32 | 32.18078 | 49.61789 | 34041 ft | 419 kts | 314° |
| 2026-04-24 02:32 | 32.22898 | 49.57975 | 34050 ft | 421 kts | 314° |
| 2026-04-24 02:33 | 32.27779 | 49.54118 | 34055 ft | 422 kts | 315° |
| 2026-04-24 02:33 | 32.32548 | 49.50346 | 34048 ft | 420 kts | 315° |
| 2026-04-24 02:34 | 32.37492 | 49.46426 | 34060 ft | 418 kts | 315° |
| 2026-04-24 02:34 | 32.42303 | 49.42605 | 34041 ft | 416 kts | 315° |
| 2026-04-24 02:35 | 32.47106 | 49.38781 | 34072 ft | 417 kts | 315° |
| 2026-04-24 02:35 | 32.51924 | 49.34945 | 34084 ft | 418 kts | 315° |
| 2026-04-24 02:36 | 32.56752 | 49.31101 | 34077 ft | 418 kts | 315° |
| 2026-04-24 02:36 | 32.61587 | 49.27245 | 34052 ft | 420 kts | 315° |
| 2026-04-24 02:37 | 32.66420 | 49.23394 | 34071 ft | 418 kts | 315° |
| 2026-04-24 02:37 | 32.71231 | 49.19547 | 34086 ft | 416 kts | 315° |
| 2026-04-24 02:38 | 32.76022 | 49.15709 | 34102 ft | 416 kts | 315° |
| 2026-04-24 02:38 | 32.80832 | 49.11850 | 34087 ft | 416 kts | 315° |
| 2026-04-24 02:39 | 32.85624 | 49.08004 | 34088 ft | 415 kts | 315° |
| 2026-04-24 02:39 | 32.90404 | 49.04162 | 34106 ft | 416 kts | 315° |
| 2026-04-24 02:40 | 32.95238 | 49.00264 | 34127 ft | 422 kts | 316° |
| 2026-04-24 02:40 | 33.00118 | 48.96329 | 34111 ft | 425 kts | 316° |
| 2026-04-24 02:41 | 33.05027 | 48.92368 | 34093 ft | 428 kts | 316° |
| 2026-04-24 02:41 | 33.09963 | 48.88381 | 34104 ft | 428 kts | 316° |
| 2026-04-24 02:42 | 33.14898 | 48.84388 | 34113 ft | 429 kts | 316° |
| 2026-04-24 02:42 | 33.19794 | 48.80422 | 34104 ft | 428 kts | 316° |
| 2026-04-24 02:43 | 33.24730 | 48.76416 | 34126 ft | 426 kts | 317° |
| 2026-04-24 02:43 | 33.29630 | 48.72432 | 34126 ft | 425 kts | 317° |
| 2026-04-24 02:44 | 33.34485 | 48.68480 | 34119 ft | 425 kts | 317° |
| 2026-04-24 02:44 | 33.39400 | 48.64564 | 34120 ft | 426 kts | 319° |
| 2026-04-24 02:45 | 33.44451 | 48.60846 | 34129 ft | 426 kts | 320° |
| 2026-04-24 02:45 | 33.49512 | 48.57150 | 34132 ft | 426 kts | 320° |
| 2026-04-24 02:46 | 33.54567 | 48.53420 | 34136 ft | 428 kts | 320° |
| 2026-04-24 02:46 | 33.59640 | 48.49649 | 34136 ft | 430 kts | 320° |
| 2026-04-24 02:47 | 33.64728 | 48.45856 | 34144 ft | 432 kts | 320° |
| 2026-04-24 02:47 | 33.69831 | 48.42047 | 34136 ft | 432 kts | 320° |
| 2026-04-24 02:48 | 33.74928 | 48.38239 | 34142 ft | 432 kts | 320° |
| 2026-04-24 02:48 | 33.80037 | 48.34415 | 34133 ft | 433 kts | 320° |
| 2026-04-24 02:49 | 33.85149 | 48.30583 | 34138 ft | 433 kts | 320° |
| 2026-04-24 02:49 | 33.90259 | 48.26747 | 34141 ft | 433 kts | 320° |
| 2026-04-24 02:50 | 33.95370 | 48.22906 | 34124 ft | 433 kts | 320° |
| 2026-04-24 02:50 | 34.00467 | 48.19069 | 34137 ft | 431 kts | 320° |
| 2026-04-24 02:51 | 34.05548 | 48.15239 | 34140 ft | 431 kts | 320° |
| 2026-04-24 02:51 | 34.10626 | 48.11405 | 34138 ft | 430 kts | 320° |
| 2026-04-24 02:52 | 34.15688 | 48.07578 | 34151 ft | 430 kts | 320° |
| 2026-04-24 02:52 | 34.20747 | 48.03748 | 34134 ft | 429 kts | 320° |
| 2026-04-24 02:53 | 34.25793 | 47.99923 | 34153 ft | 427 kts | 320° |
| 2026-04-24 02:53 | 34.30831 | 47.96097 | 34147 ft | 427 kts | 320° |
| 2026-04-24 02:54 | 34.35854 | 47.92277 | 34169 ft | 427 kts | 320° |
| 2026-04-24 02:54 | 34.40880 | 47.88449 | 34169 ft | 427 kts | 320° |
| 2026-04-24 02:55 | 34.45904 | 47.84618 | 34161 ft | 426 kts | 320° |
| 2026-04-24 02:55 | 34.50889 | 47.80811 | 34177 ft | 426 kts | 320° |
| 2026-04-24 02:56 | 34.55912 | 47.76967 | 34175 ft | 428 kts | 320° |
| 2026-04-24 02:56 | 34.60991 | 47.73077 | 34156 ft | 429 kts | 320° |
| 2026-04-24 02:57 | 34.66014 | 47.69224 | 34158 ft | 431 kts | 320° |
| 2026-04-24 02:57 | 34.71082 | 47.65331 | 34152 ft | 431 kts | 320° |
| 2026-04-24 02:58 | 34.76148 | 47.61435 | 34154 ft | 432 kts | 320° |
| 2026-04-24 02:58 | 34.81229 | 47.57521 | 34148 ft | 432 kts | 320° |
| 2026-04-24 02:59 | 34.86295 | 47.53613 | 34148 ft | 431 kts | 320° |
| 2026-04-24 02:59 | 34.91348 | 47.49709 | 34141 ft | 429 kts | 320° |
| 2026-04-24 03:00 | 34.96373 | 47.45821 | 34139 ft | 427 kts | 320° |
| 2026-04-24 03:00 | 35.01385 | 47.41937 | 34134 ft | 426 kts | 320° |
| 2026-04-24 03:01 | 35.06373 | 47.38064 | 34130 ft | 424 kts | 320° |
| 2026-04-24 03:01 | 35.11347 | 47.34197 | 34119 ft | 423 kts | 320° |
| 2026-04-24 03:02 | 35.16300 | 47.30342 | 34132 ft | 422 kts | 320° |
| 2026-04-24 03:02 | 35.21275 | 47.26517 | 34127 ft | 423 kts | 320° |
| 2026-04-24 03:03 | 35.26264 | 47.22735 | 34134 ft | 422 kts | 320° |
| 2026-04-24 03:03 | 35.31251 | 47.18944 | 34136 ft | 422 kts | 320° |
| 2026-04-24 03:04 | 35.36235 | 47.15140 | 34129 ft | 422 kts | 320° |
| 2026-04-24 03:04 | 35.41228 | 47.11320 | 34116 ft | 424 kts | 320° |
| 2026-04-24 03:05 | 35.46235 | 47.07486 | 34132 ft | 425 kts | 320° |
| 2026-04-24 03:05 | 35.51257 | 47.03633 | 34122 ft | 426 kts | 320° |
| 2026-04-24 03:06 | 35.55437 | 47.00422 | 34115 ft | 427 kts | 320° |
| 2026-04-24 03:06 | 35.60481 | 46.96543 | 34100 ft | 428 kts | 320° |
| 2026-04-24 03:07 | 35.65508 | 46.92637 | 34111 ft | 427 kts | 319° |
| 2026-04-24 03:07 | 35.70460 | 46.88599 | 34088 ft | 427 kts | 319° |
| 2026-04-24 03:08 | 35.77874 | 46.82511 | 34094 ft | 428 kts | 319° |
| 2026-04-24 03:09 | 35.82838 | 46.78450 | 34091 ft | 428 kts | 319° |
| 2026-04-24 03:09 | 35.87805 | 46.74384 | 34083 ft | 429 kts | 319° |
| 2026-04-24 03:10 | 35.92783 | 46.70304 | 34084 ft | 429 kts | 319° |
| 2026-04-24 03:10 | 35.97753 | 46.66225 | 34085 ft | 429 kts | 319° |
| 2026-04-24 03:11 | 36.02611 | 46.62009 | 34083 ft | 426 kts | 316° |
| 2026-04-24 03:11 | 36.07371 | 46.57669 | 34089 ft | 425 kts | 316° |
| 2026-04-24 03:12 | 36.12138 | 46.53325 | 34082 ft | 425 kts | 316° |
| 2026-04-24 03:12 | 36.16903 | 46.49010 | 34092 ft | 424 kts | 316° |
| 2026-04-24 03:13 | 36.21661 | 46.44707 | 34088 ft | 423 kts | 316° |
| 2026-04-24 03:13 | 36.26408 | 46.40410 | 34075 ft | 422 kts | 316° |
| 2026-04-24 03:14 | 36.31100 | 46.36157 | 34083 ft | 421 kts | 316° |
| 2026-04-24 03:14 | 36.35819 | 46.31871 | 34083 ft | 420 kts | 316° |
| 2026-04-24 03:15 | 36.40525 | 46.27590 | 34077 ft | 420 kts | 316° |
| 2026-04-24 03:15 | 36.45233 | 46.23301 | 34081 ft | 420 kts | 316° |
| 2026-04-24 03:16 | 36.49949 | 46.18998 | 34077 ft | 421 kts | 316° |
| 2026-04-24 03:16 | 36.54678 | 46.14677 | 34069 ft | 422 kts | 316° |
| 2026-04-24 03:17 | 36.59401 | 46.10355 | 34068 ft | 422 kts | 316° |
| 2026-04-24 03:17 | 36.64134 | 46.06017 | 34065 ft | 423 kts | 316° |
| 2026-04-24 03:18 | 36.68871 | 46.01668 | 34054 ft | 423 kts | 316° |
| 2026-04-24 03:18 | 36.73607 | 45.97314 | 34047 ft | 423 kts | 316° |
| 2026-04-24 03:19 | 36.78341 | 45.92956 | 34054 ft | 423 kts | 316° |
| 2026-04-24 03:19 | 36.83080 | 45.88585 | 34053 ft | 424 kts | 316° |
| 2026-04-24 03:20 | 36.87830 | 45.84196 | 34050 ft | 425 kts | 316° |
| 2026-04-24 03:20 | 36.92592 | 45.79789 | 34038 ft | 427 kts | 316° |
| 2026-04-24 03:21 | 36.97365 | 45.75367 | 34027 ft | 427 kts | 316° |
| 2026-04-24 03:21 | 37.02141 | 45.70935 | 34025 ft | 427 kts | 316° |
| 2026-04-24 03:22 | 37.06913 | 45.66499 | 34019 ft | 427 kts | 316° |
| 2026-04-24 03:22 | 37.11686 | 45.62054 | 34016 ft | 427 kts | 316° |
| 2026-04-24 03:23 | 37.16447 | 45.57614 | 34010 ft | 427 kts | 316° |
| 2026-04-24 03:23 | 37.21206 | 45.53168 | 34008 ft | 426 kts | 316° |
| 2026-04-24 03:24 | 37.25961 | 45.48718 | 34000 ft | 426 kts | 316° |
| 2026-04-24 03:24 | 37.30710 | 45.44267 | 33993 ft | 426 kts | 316° |
| 2026-04-24 03:25 | 37.35424 | 45.39841 | 33990 ft | 426 kts | 316° |
| 2026-04-24 03:25 | 37.40171 | 45.35378 | 33990 ft | 426 kts | 316° |
| 2026-04-24 03:26 | 37.44919 | 45.30910 | 33987 ft | 426 kts | 316° |
| 2026-04-24 03:26 | 37.49668 | 45.26443 | 33992 ft | 426 kts | 316° |
| 2026-04-24 03:27 | 37.54421 | 45.21964 | 33993 ft | 427 kts | 316° |
| 2026-04-24 03:27 | 37.59174 | 45.17476 | 34006 ft | 427 kts | 316° |
| 2026-04-24 03:28 | 37.63926 | 45.12982 | 33997 ft | 428 kts | 316° |
| 2026-04-24 03:28 | 37.68572 | 45.08327 | 33995 ft | 422 kts | 309° |
| 2026-04-24 03:29 | 37.72198 | 45.02642 | 34004 ft | 414 kts | 300° |
| 2026-04-24 03:29 | 37.75572 | 44.96734 | 34006 ft | 415 kts | 300° |
| 2026-04-24 03:30 | 37.78976 | 44.90834 | 33999 ft | 416 kts | 301° |
| 2026-04-24 03:30 | 37.82410 | 44.84917 | 33988 ft | 418 kts | 301° |
| 2026-04-24 03:31 | 37.85830 | 44.79018 | 33990 ft | 419 kts | 300° |
| 2026-04-24 03:31 | 37.89075 | 44.72924 | 33968 ft | 414 kts | 291° |
| 2026-04-24 03:32 | 37.91507 | 44.66335 | 33976 ft | 413 kts | 290° |
| 2026-04-24 03:32 | 37.93918 | 44.59728 | 33974 ft | 413 kts | 290° |
| 2026-04-24 03:33 | 37.96347 | 44.53140 | 33992 ft | 413 kts | 290° |
| 2026-04-24 03:33 | 37.98788 | 44.46536 | 33993 ft | 414 kts | 290° |
| 2026-04-24 03:34 | 38.01227 | 44.39927 | 33998 ft | 413 kts | 290° |
| 2026-04-24 03:34 | 38.03656 | 44.33333 | 33997 ft | 412 kts | 290° |
| 2026-04-24 03:35 | 38.06181 | 44.26796 | 33997 ft | 413 kts | 293° |
| 2026-04-24 03:35 | 38.08967 | 44.20408 | 33990 ft | 414 kts | 294° |
| 2026-04-24 03:36 | 38.11774 | 44.14046 | 34002 ft | 412 kts | 293° |
| 2026-04-24 03:36 | 38.14546 | 44.07681 | 34017 ft | 411 kts | 293° |
| 2026-04-24 03:37 | 38.17292 | 44.01325 | 34016 ft | 411 kts | 293° |
| 2026-04-24 03:37 | 38.20034 | 43.94952 | 34020 ft | 409 kts | 293° |
| 2026-04-24 03:38 | 38.22738 | 43.88656 | 34011 ft | 408 kts | 293° |
| 2026-04-24 03:38 | 38.25456 | 43.82316 | 34019 ft | 408 kts | 292° |
| 2026-04-24 03:39 | 38.28164 | 43.75986 | 34014 ft | 407 kts | 292° |
| 2026-04-24 03:39 | 38.30863 | 43.69664 | 34019 ft | 406 kts | 293° |
| 2026-04-24 03:40 | 38.33551 | 43.63354 | 34016 ft | 405 kts | 292° |
| 2026-04-24 03:40 | 38.36235 | 43.57042 | 34026 ft | 405 kts | 292° |
| 2026-04-24 03:41 | 38.38918 | 43.50720 | 34024 ft | 406 kts | 292° |
| 2026-04-24 03:41 | 38.41600 | 43.44386 | 34033 ft | 406 kts | 292° |
| 2026-04-24 03:42 | 38.44284 | 43.38036 | 34032 ft | 407 kts | 292° |
| 2026-04-24 03:42 | 38.46966 | 43.31668 | 34019 ft | 407 kts | 292° |
| 2026-04-24 03:43 | 38.49509 | 43.25236 | 34022 ft | 405 kts | 291° |
| 2026-04-24 03:43 | 38.51995 | 43.18778 | 34018 ft | 405 kts | 291° |
| 2026-04-24 03:44 | 38.54483 | 43.12331 | 34004 ft | 405 kts | 291° |
| 2026-04-24 03:44 | 38.56978 | 43.05885 | 33992 ft | 404 kts | 291° |
| 2026-04-24 03:45 | 38.59471 | 42.99442 | 33979 ft | 404 kts | 291° |
| 2026-04-24 03:45 | 38.61944 | 42.93038 | 33968 ft | 404 kts | 291° |
| 2026-04-24 03:46 | 38.64428 | 42.86596 | 33964 ft | 404 kts | 291° |
| 2026-04-24 03:46 | 38.66908 | 42.80146 | 33966 ft | 404 kts | 291° |
| 2026-04-24 03:47 | 38.69383 | 42.73697 | 33962 ft | 404 kts | 291° |
| 2026-04-24 03:47 | 38.71858 | 42.67234 | 33966 ft | 404 kts | 291° |
| 2026-04-24 03:48 | 38.74328 | 42.60769 | 33961 ft | 404 kts | 291° |
| 2026-04-24 03:48 | 38.76799 | 42.54291 | 33967 ft | 405 kts | 291° |
| 2026-04-24 03:49 | 38.79270 | 42.47795 | 33970 ft | 406 kts | 291° |
| 2026-04-24 03:49 | 38.81740 | 42.41289 | 33965 ft | 406 kts | 291° |
| 2026-04-24 03:50 | 38.84214 | 42.34759 | 33961 ft | 407 kts | 291° |
| 2026-04-24 03:50 | 38.86685 | 42.28222 | 33961 ft | 407 kts | 291° |
| 2026-04-24 03:51 | 38.89155 | 42.21676 | 33959 ft | 407 kts | 291° |
| 2026-04-24 03:51 | 38.91617 | 42.15137 | 33955 ft | 407 kts | 291° |
| 2026-04-24 03:52 | 38.94075 | 42.08587 | 33951 ft | 407 kts | 291° |
| 2026-04-24 03:52 | 38.96527 | 42.02037 | 33957 ft | 406 kts | 291° |
| 2026-04-24 03:53 | 38.98964 | 41.95511 | 33958 ft | 405 kts | 291° |
| 2026-04-24 03:53 | 39.01394 | 41.88989 | 33956 ft | 404 kts | 290° |
| 2026-04-24 03:54 | 39.03816 | 41.82476 | 33957 ft | 403 kts | 290° |
| 2026-04-24 03:54 | 39.06228 | 41.75973 | 33949 ft | 403 kts | 290° |
| 2026-04-24 03:55 | 39.08228 | 41.70572 | 33951 ft | 402 kts | 290° |
| 2026-04-24 03:55 | 39.10630 | 41.64070 | 33950 ft | 402 kts | 290° |
| 2026-04-24 03:56 | 39.13029 | 41.57566 | 33943 ft | 402 kts | 290° |
| 2026-04-24 03:56 | 39.15421 | 41.51066 | 33952 ft | 401 kts | 290° |
| 2026-04-24 03:57 | 39.17815 | 41.44566 | 33956 ft | 401 kts | 290° |
| 2026-04-24 03:57 | 39.20206 | 41.38071 | 33951 ft | 401 kts | 290° |
| 2026-04-24 03:58 | 39.22588 | 41.31587 | 33949 ft | 399 kts | 289° |
| 2026-04-24 03:58 | 39.24953 | 41.25128 | 33945 ft | 398 kts | 289° |
| 2026-04-24 03:59 | 39.27296 | 41.18715 | 33952 ft | 397 kts | 289° |
| 2026-04-24 03:59 | 39.29658 | 41.12239 | 33948 ft | 396 kts | 289° |
| 2026-04-24 04:00 | 39.31986 | 41.05837 | 33951 ft | 397 kts | 289° |
| 2026-04-24 04:00 | 39.34328 | 40.99386 | 33950 ft | 397 kts | 289° |
| 2026-04-24 04:01 | 39.36668 | 40.92929 | 33942 ft | 397 kts | 289° |
| 2026-04-24 04:01 | 39.39005 | 40.86461 | 33946 ft | 397 kts | 289° |
| 2026-04-24 04:02 | 39.41340 | 40.79984 | 33948 ft | 398 kts | 289° |
| 2026-04-24 04:02 | 39.43680 | 40.73477 | 33929 ft | 400 kts | 289° |
| 2026-04-24 04:03 | 39.46022 | 40.66950 | 33929 ft | 401 kts | 289° |
| 2026-04-24 04:03 | 39.48368 | 40.60398 | 33925 ft | 402 kts | 289° |
| 2026-04-24 04:04 | 39.50714 | 40.53833 | 33926 ft | 402 kts | 289° |
| 2026-04-24 04:04 | 39.53053 | 40.47278 | 33919 ft | 400 kts | 289° |
| 2026-04-24 04:05 | 39.55386 | 40.40746 | 33929 ft | 398 kts | 289° |
| 2026-04-24 04:05 | 39.57701 | 40.34247 | 33906 ft | 397 kts | 289° |
| 2026-04-24 04:06 | 39.60011 | 40.27748 | 33914 ft | 396 kts | 289° |
| 2026-04-24 04:06 | 39.62310 | 40.21263 | 33905 ft | 395 kts | 289° |
| 2026-04-24 04:07 | 39.64597 | 40.14791 | 33895 ft | 394 kts | 289° |
| 2026-04-24 04:07 | 39.66871 | 40.08341 | 33896 ft | 392 kts | 289° |
| 2026-04-24 04:08 | 39.69121 | 40.01945 | 33920 ft | 391 kts | 288° |
| 2026-04-24 04:08 | 39.71374 | 39.95528 | 33917 ft | 390 kts | 288° |
| 2026-04-24 04:09 | 39.73622 | 39.89107 | 33959 ft | 391 kts | 288° |
| 2026-04-24 04:09 | 39.75877 | 39.82650 | 33954 ft | 393 kts | 288° |
| 2026-04-24 04:10 | 39.78139 | 39.76164 | 33966 ft | 395 kts | 288° |
| 2026-04-24 04:10 | 39.80404 | 39.69655 | 33994 ft | 395 kts | 288° |
| 2026-04-24 04:11 | 39.83799 | 39.59870 | 34002 ft | 395 kts | 288° |
| 2026-04-24 04:11 | 39.86060 | 39.53335 | 33990 ft | 396 kts | 288° |
| 2026-04-24 04:12 | 39.88317 | 39.46793 | 33990 ft | 396 kts | 288° |
| 2026-04-24 04:12 | 39.90565 | 39.40261 | 33992 ft | 395 kts | 288° |
| 2026-04-24 04:13 | 39.92803 | 39.33746 | 33993 ft | 393 kts | 288° |
| 2026-04-24 04:13 | 39.94968 | 39.27430 | 34001 ft | 392 kts | 288° |
| 2026-04-24 04:14 | 39.97188 | 39.20954 | 33996 ft | 391 kts | 288° |
| 2026-04-24 04:14 | 39.99400 | 39.14487 | 34005 ft | 390 kts | 288° |
| 2026-04-24 04:15 | 40.01607 | 39.08017 | 34004 ft | 390 kts | 288° |
| 2026-04-24 04:15 | 40.03809 | 39.01548 | 34012 ft | 391 kts | 288° |
| 2026-04-24 04:16 | 40.06016 | 38.95046 | 34019 ft | 392 kts | 288° |
| 2026-04-24 04:16 | 40.08228 | 38.88515 | 34022 ft | 394 kts | 288° |
| 2026-04-24 04:17 | 40.10445 | 38.81960 | 34023 ft | 395 kts | 288° |
| 2026-04-24 04:17 | 40.12568 | 38.75667 | 34027 ft | 396 kts | 287° |
| 2026-04-24 04:18 | 40.14840 | 38.68913 | 34028 ft | 396 kts | 287° |
| 2026-04-24 04:18 | 40.17051 | 38.62323 | 34038 ft | 396 kts | 287° |
| 2026-04-24 04:19 | 40.19264 | 38.55712 | 34025 ft | 397 kts | 287° |
| 2026-04-24 04:19 | 40.21470 | 38.49110 | 34022 ft | 396 kts | 287° |
| 2026-04-24 04:20 | 40.23669 | 38.42508 | 34015 ft | 396 kts | 287° |
| 2026-04-24 04:20 | 40.25845 | 38.35966 | 34038 ft | 395 kts | 287° |
| 2026-04-24 04:21 | 40.28033 | 38.29364 | 34017 ft | 395 kts | 287° |
| 2026-04-24 04:21 | 40.30213 | 38.22777 | 34033 ft | 394 kts | 287° |
| 2026-04-24 04:22 | 40.32387 | 38.16193 | 34024 ft | 393 kts | 287° |
| 2026-04-24 04:22 | 40.34435 | 38.09676 | 33996 ft | 391 kts | 285° |
| 2026-04-24 04:23 | 40.36381 | 38.03150 | 34015 ft | 390 kts | 285° |
| 2026-04-24 04:23 | 40.38337 | 37.96588 | 34029 ft | 389 kts | 285° |
| 2026-04-24 04:24 | 40.40249 | 37.90201 | 34021 ft | 389 kts | 285° |
| 2026-04-24 04:24 | 40.42229 | 37.83589 | 34036 ft | 390 kts | 285° |
| 2026-04-24 04:25 | 40.44198 | 37.76996 | 34030 ft | 391 kts | 285° |
| 2026-04-24 04:25 | 40.46166 | 37.70391 | 34024 ft | 391 kts | 285° |
| 2026-04-24 04:26 | 40.48150 | 37.63719 | 34022 ft | 391 kts | 285° |
| 2026-04-24 04:26 | 40.50129 | 37.57050 | 34031 ft | 392 kts | 285° |
| 2026-04-24 04:27 | 40.52123 | 37.50314 | 34032 ft | 394 kts | 285° |
| 2026-04-24 04:27 | 40.54093 | 37.43638 | 34026 ft | 395 kts | 285° |
| 2026-04-24 04:28 | 40.56078 | 37.36900 | 34029 ft | 395 kts | 285° |
| 2026-04-24 04:28 | 40.58060 | 37.30154 | 34030 ft | 395 kts | 285° |
| 2026-04-24 04:29 | 40.60039 | 37.23400 | 34035 ft | 396 kts | 285° |
| 2026-04-24 04:29 | 40.62013 | 37.16641 | 34038 ft | 396 kts | 285° |
| 2026-04-24 04:30 | 40.63987 | 37.09869 | 34045 ft | 396 kts | 285° |
| 2026-04-24 04:30 | 40.65917 | 37.03229 | 34037 ft | 397 kts | 285° |
| 2026-04-24 04:31 | 40.67869 | 36.96496 | 34045 ft | 398 kts | 285° |
| 2026-04-24 04:31 | 40.69850 | 36.89646 | 34034 ft | 399 kts | 285° |
| 2026-04-24 04:32 | 40.71812 | 36.82845 | 34024 ft | 400 kts | 285° |
| 2026-04-24 04:32 | 40.73780 | 36.76004 | 34038 ft | 400 kts | 285° |
| 2026-04-24 04:33 | 40.75734 | 36.69197 | 34026 ft | 401 kts | 285° |
| 2026-04-24 04:33 | 40.77707 | 36.62300 | 34031 ft | 403 kts | 285° |
| 2026-04-24 04:34 | 40.79686 | 36.55368 | 34034 ft | 405 kts | 286° |
| 2026-04-24 04:34 | 40.81669 | 36.48403 | 34029 ft | 406 kts | 286° |
| 2026-04-24 04:35 | 40.83656 | 36.41407 | 34026 ft | 407 kts | 286° |
| 2026-04-24 04:35 | 40.85638 | 36.34411 | 34016 ft | 407 kts | 286° |
| 2026-04-24 04:36 | 40.87614 | 36.27412 | 34011 ft | 406 kts | 286° |
| 2026-04-24 04:36 | 40.89585 | 36.20412 | 34007 ft | 406 kts | 286° |
| 2026-04-24 04:37 | 40.91551 | 36.13411 | 34013 ft | 406 kts | 286° |
| 2026-04-24 04:37 | 40.93513 | 36.06408 | 33996 ft | 407 kts | 286° |
| 2026-04-24 04:38 | 40.95473 | 35.99389 | 33997 ft | 408 kts | 286° |
| 2026-04-24 04:38 | 40.97436 | 35.92345 | 33992 ft | 408 kts | 286° |
| 2026-04-24 04:39 | 40.99386 | 35.85325 | 33980 ft | 409 kts | 286° |
| 2026-04-24 04:39 | 41.01347 | 35.78254 | 33996 ft | 410 kts | 286° |
| 2026-04-24 04:40 | 41.03266 | 35.71310 | 33980 ft | 410 kts | 286° |
| 2026-04-24 04:40 | 41.05210 | 35.64259 | 33998 ft | 411 kts | 286° |
| 2026-04-24 04:41 | 41.07170 | 35.57131 | 33981 ft | 412 kts | 286° |
| 2026-04-24 04:41 | 41.09131 | 35.49977 | 33988 ft | 413 kts | 286° |
| 2026-04-24 04:42 | 41.11072 | 35.42877 | 33980 ft | 414 kts | 286° |
| 2026-04-24 04:42 | 41.12993 | 35.35829 | 33981 ft | 415 kts | 287° |
| 2026-04-24 04:43 | 41.14937 | 35.28677 | 34001 ft | 415 kts | 287° |
| 2026-04-24 04:43 | 41.16572 | 35.22647 | 33979 ft | 416 kts | 287° |
| 2026-04-24 04:44 | 41.18456 | 35.15676 | 33992 ft | 417 kts | 287° |
| 2026-04-24 04:44 | 41.20478 | 35.08178 | 33993 ft | 417 kts | 287° |
| 2026-04-24 04:45 | 41.22429 | 35.00921 | 34003 ft | 418 kts | 287° |
| 2026-04-24 04:45 | 41.24378 | 34.93649 | 34009 ft | 418 kts | 287° |
| 2026-04-24 04:46 | 41.26327 | 34.86355 | 34006 ft | 419 kts | 287° |
| 2026-04-24 04:46 | 41.28273 | 34.79066 | 34008 ft | 419 kts | 287° |
| 2026-04-24 04:47 | 41.30218 | 34.71761 | 34007 ft | 419 kts | 287° |
| 2026-04-24 04:47 | 41.32158 | 34.64452 | 34001 ft | 419 kts | 287° |
| 2026-04-24 04:48 | 41.34078 | 34.57195 | 34007 ft | 419 kts | 287° |
| 2026-04-24 04:48 | 41.35943 | 34.50129 | 34018 ft | 418 kts | 287° |
| 2026-04-24 04:49 | 41.37887 | 34.42738 | 34012 ft | 419 kts | 287° |
| 2026-04-24 04:49 | 41.39782 | 34.35517 | 34013 ft | 419 kts | 287° |
| 2026-04-24 04:50 | 41.41699 | 34.28153 | 34018 ft | 419 kts | 287° |
| 2026-04-24 04:50 | 41.43609 | 34.20758 | 34018 ft | 420 kts | 287° |
| 2026-04-24 04:51 | 41.45494 | 34.13449 | 34024 ft | 420 kts | 287° |
| 2026-04-24 04:51 | 41.47403 | 34.06044 | 34021 ft | 421 kts | 287° |
| 2026-04-24 04:52 | 41.49307 | 33.98646 | 34021 ft | 422 kts | 287° |
| 2026-04-24 04:52 | 41.51206 | 33.91246 | 34019 ft | 422 kts | 287° |
| 2026-04-24 04:53 | 41.53105 | 33.83818 | 34019 ft | 423 kts | 287° |
| 2026-04-24 04:53 | 41.54998 | 33.76391 | 34022 ft | 423 kts | 287° |
| 2026-04-24 04:54 | 41.56890 | 33.68945 | 34024 ft | 423 kts | 287° |
| 2026-04-24 04:54 | 41.58724 | 33.61709 | 34023 ft | 423 kts | 287° |
| 2026-04-24 04:55 | 41.60615 | 33.54228 | 34024 ft | 424 kts | 287° |
| 2026-04-24 04:55 | 41.62496 | 33.46768 | 34024 ft | 424 kts | 287° |
| 2026-04-24 04:56 | 41.64368 | 33.39301 | 34015 ft | 423 kts | 287° |
| 2026-04-24 04:56 | 41.66233 | 33.31842 | 34017 ft | 423 kts | 287° |
| 2026-04-24 04:57 | 41.68023 | 33.24659 | 34010 ft | 422 kts | 287° |
| 2026-04-24 04:57 | 41.69919 | 33.17031 | 34015 ft | 421 kts | 287° |
| 2026-04-24 04:58 | 41.71743 | 33.09668 | 34005 ft | 421 kts | 287° |
| 2026-04-24 04:58 | 41.73569 | 33.02276 | 33995 ft | 421 kts | 287° |
| 2026-04-24 04:59 | 41.75405 | 32.94819 | 33997 ft | 420 kts | 287° |
| 2026-04-24 04:59 | 41.77222 | 32.87420 | 33997 ft | 420 kts | 287° |
| 2026-04-24 05:00 | 41.79046 | 32.79972 | 33995 ft | 420 kts | 287° |
| 2026-04-24 05:00 | 41.80843 | 32.72605 | 33991 ft | 420 kts | 287° |
| 2026-04-24 05:01 | 41.82640 | 32.65204 | 33985 ft | 420 kts | 287° |
| 2026-04-24 05:01 | 41.84437 | 32.57782 | 33984 ft | 420 kts | 287° |
| 2026-04-24 05:02 | 41.86242 | 32.50303 | 33986 ft | 420 kts | 287° |
| 2026-04-24 05:02 | 41.88035 | 32.42837 | 33985 ft | 421 kts | 287° |
| 2026-04-24 05:03 | 41.89827 | 32.35306 | 33990 ft | 421 kts | 287° |
| 2026-04-24 05:03 | 41.91630 | 32.27820 | 33991 ft | 422 kts | 287° |
| 2026-04-24 05:04 | 41.93417 | 32.20377 | 33981 ft | 422 kts | 287° |
| 2026-04-24 05:04 | 41.95199 | 32.12861 | 33983 ft | 422 kts | 287° |
| 2026-04-24 05:05 | 41.96948 | 32.05457 | 33987 ft | 423 kts | 287° |
| 2026-04-24 05:05 | 41.98712 | 31.97973 | 33985 ft | 423 kts | 287° |
| 2026-04-24 05:06 | 42.00470 | 31.90497 | 33991 ft | 423 kts | 287° |
| 2026-04-24 05:06 | 42.02249 | 31.82908 | 33982 ft | 424 kts | 287° |
| 2026-04-24 05:07 | 42.03967 | 31.75568 | 33976 ft | 424 kts | 287° |
| 2026-04-24 05:07 | 42.05754 | 31.67905 | 33980 ft | 424 kts | 287° |
| 2026-04-24 05:08 | 42.07470 | 31.60522 | 33978 ft | 424 kts | 287° |
| 2026-04-24 05:08 | 42.09226 | 31.52941 | 33978 ft | 423 kts | 287° |
| 2026-04-24 05:09 | 42.10982 | 31.45335 | 33977 ft | 423 kts | 287° |
| 2026-04-24 05:09 | 42.12690 | 31.37913 | 33972 ft | 423 kts | 287° |
| 2026-04-24 05:10 | 42.14377 | 31.30557 | 33971 ft | 422 kts | 287° |
| 2026-04-24 05:10 | 42.16092 | 31.23049 | 33973 ft | 422 kts | 287° |
| 2026-04-24 05:11 | 42.17804 | 31.15532 | 33969 ft | 422 kts | 287° |
| 2026-04-24 05:11 | 42.19517 | 31.07980 | 33975 ft | 422 kts | 287° |
| 2026-04-24 05:12 | 42.21229 | 31.00411 | 33972 ft | 422 kts | 287° |
| 2026-04-24 05:12 | 42.22902 | 30.92989 | 33963 ft | 422 kts | 287° |
| 2026-04-24 05:13 | 42.25404 | 30.81841 | 33960 ft | 423 kts | 287° |
| 2026-04-24 05:14 | 42.27132 | 30.74105 | 33969 ft | 423 kts | 287° |
| 2026-04-24 05:14 | 42.28826 | 30.66498 | 33966 ft | 423 kts | 287° |
| 2026-04-24 05:15 | 42.30515 | 30.58886 | 33963 ft | 424 kts | 287° |
| 2026-04-24 05:15 | 42.32203 | 30.51254 | 33963 ft | 424 kts | 287° |
| 2026-04-24 05:16 | 42.33881 | 30.43638 | 33955 ft | 424 kts | 287° |
| 2026-04-24 05:16 | 42.35559 | 30.35993 | 33951 ft | 424 kts | 287° |
| 2026-04-24 05:17 | 42.37232 | 30.28348 | 33955 ft | 424 kts | 287° |
| 2026-04-24 05:17 | 42.38900 | 30.20695 | 33952 ft | 424 kts | 287° |
| 2026-04-24 05:18 | 42.40564 | 30.13032 | 33961 ft | 424 kts | 287° |
| 2026-04-24 05:18 | 42.42222 | 30.05369 | 33962 ft | 424 kts | 287° |
| 2026-04-24 05:19 | 42.43866 | 29.97748 | 33955 ft | 425 kts | 287° |
| 2026-04-24 05:19 | 42.45517 | 29.90068 | 33954 ft | 425 kts | 287° |
| 2026-04-24 05:20 | 42.47101 | 29.82369 | 33954 ft | 425 kts | 285° |
| 2026-04-24 05:20 | 42.48527 | 29.74600 | 33955 ft | 425 kts | 285° |
| 2026-04-24 05:21 | 42.49931 | 29.66823 | 33961 ft | 425 kts | 285° |
| 2026-04-24 05:21 | 42.51347 | 29.59050 | 33958 ft | 425 kts | 285° |
| 2026-04-24 05:22 | 42.52770 | 29.51266 | 33960 ft | 425 kts | 285° |
| 2026-04-24 05:22 | 42.54189 | 29.43490 | 33958 ft | 425 kts | 285° |
| 2026-04-24 05:23 | 42.55605 | 29.35703 | 33960 ft | 426 kts | 285° |
| 2026-04-24 05:23 | 42.57018 | 29.27897 | 33951 ft | 426 kts | 285° |
| 2026-04-24 05:24 | 42.58403 | 29.20212 | 33954 ft | 426 kts | 285° |
| 2026-04-24 05:24 | 42.59787 | 29.12503 | 33954 ft | 426 kts | 285° |
| 2026-04-24 05:25 | 42.61190 | 29.04652 | 33957 ft | 427 kts | 285° |
| 2026-04-24 05:25 | 42.62562 | 28.96946 | 33957 ft | 427 kts | 285° |
| 2026-04-24 05:26 | 42.63955 | 28.89085 | 33958 ft | 427 kts | 285° |
| 2026-04-24 05:26 | 42.65340 | 28.81236 | 33960 ft | 427 kts | 285° |
| 2026-04-24 05:27 | 42.66720 | 28.73378 | 33958 ft | 428 kts | 285° |
| 2026-04-24 05:27 | 42.68095 | 28.65520 | 33965 ft | 428 kts | 285° |
| 2026-04-24 05:28 | 42.69465 | 28.57654 | 33963 ft | 428 kts | 285° |
| 2026-04-24 05:28 | 42.70832 | 28.49771 | 33963 ft | 428 kts | 285° |
| 2026-04-24 05:29 | 42.72194 | 28.41886 | 33967 ft | 428 kts | 285° |
| 2026-04-24 05:29 | 42.73321 | 28.35329 | 33969 ft | 429 kts | 285° |
| 2026-04-24 05:30 | 42.74674 | 28.27429 | 33963 ft | 429 kts | 285° |
| 2026-04-24 05:30 | 42.76025 | 28.19505 | 33966 ft | 430 kts | 285° |
| 2026-04-24 05:31 | 42.77371 | 28.11578 | 33965 ft | 430 kts | 284° |
| 2026-04-24 05:31 | 42.78712 | 28.03639 | 33970 ft | 431 kts | 284° |
| 2026-04-24 05:32 | 42.80052 | 27.95676 | 33963 ft | 432 kts | 284° |
| 2026-04-24 05:32 | 42.81386 | 27.87705 | 33964 ft | 432 kts | 285° |
| 2026-04-24 05:33 | 42.82718 | 27.79715 | 33972 ft | 433 kts | 284° |
| 2026-04-24 05:33 | 42.84047 | 27.71705 | 33968 ft | 434 kts | 285° |
| 2026-04-24 05:34 | 42.86030 | 27.59679 | 33965 ft | 434 kts | 285° |
| 2026-04-24 05:34 | 42.87348 | 27.51644 | 33964 ft | 434 kts | 285° |
| 2026-04-24 05:35 | 42.88658 | 27.43614 | 33961 ft | 434 kts | 285° |
| 2026-04-24 05:35 | 42.89963 | 27.35581 | 33950 ft | 433 kts | 285° |
| 2026-04-24 05:36 | 42.91259 | 27.27567 | 33961 ft | 433 kts | 285° |
| 2026-04-24 05:36 | 42.92550 | 27.19544 | 33959 ft | 433 kts | 285° |
| 2026-04-24 05:37 | 42.93824 | 27.11588 | 33952 ft | 432 kts | 285° |
| 2026-04-24 05:37 | 42.95102 | 27.03571 | 33958 ft | 432 kts | 285° |
| 2026-04-24 05:38 | 42.96374 | 26.95553 | 33962 ft | 432 kts | 285° |
| 2026-04-24 05:38 | 42.97641 | 26.87527 | 33955 ft | 433 kts | 285° |
| 2026-04-24 05:39 | 42.98889 | 26.79581 | 33966 ft | 433 kts | 285° |
| 2026-04-24 05:39 | 43.00146 | 26.71544 | 33962 ft | 433 kts | 285° |
| 2026-04-24 05:40 | 43.01377 | 26.63630 | 33966 ft | 434 kts | 285° |
| 2026-04-24 05:40 | 43.02626 | 26.55563 | 33972 ft | 435 kts | 285° |
| 2026-04-24 05:41 | 43.03873 | 26.47471 | 33971 ft | 435 kts | 285° |
| 2026-04-24 05:41 | 43.05115 | 26.39371 | 33976 ft | 436 kts | 285° |
| 2026-04-24 05:42 | 43.06329 | 26.31413 | 33982 ft | 437 kts | 285° |
| 2026-04-24 05:42 | 43.07543 | 26.23414 | 33983 ft | 437 kts | 285° |
| 2026-04-24 05:43 | 43.08781 | 26.15212 | 33975 ft | 438 kts | 285° |
| 2026-04-24 05:43 | 43.09990 | 26.07164 | 33984 ft | 438 kts | 285° |
| 2026-04-24 05:44 | 43.11207 | 25.99020 | 33982 ft | 438 kts | 285° |
| 2026-04-24 05:44 | 43.12413 | 25.90913 | 33998 ft | 437 kts | 285° |
| 2026-04-24 05:45 | 43.13609 | 25.82829 | 33988 ft | 438 kts | 285° |
| 2026-04-24 05:45 | 43.14815 | 25.74645 | 33986 ft | 438 kts | 285° |
| 2026-04-24 05:46 | 43.16045 | 25.66482 | 33992 ft | 437 kts | 285° |
| 2026-04-24 05:46 | 43.17354 | 25.58396 | 33996 ft | 437 kts | 286° |
| 2026-04-24 05:47 | 43.18687 | 25.50204 | 33989 ft | 438 kts | 286° |
| 2026-04-24 05:47 | 43.19986 | 25.42111 | 33990 ft | 438 kts | 286° |
| 2026-04-24 05:48 | 43.21290 | 25.33905 | 33989 ft | 438 kts | 286° |
| 2026-04-24 05:48 | 43.22581 | 25.25731 | 33991 ft | 438 kts | 286° |
| 2026-04-24 05:49 | 43.23865 | 25.17559 | 33993 ft | 439 kts | 286° |
| 2026-04-24 05:49 | 43.25148 | 25.09350 | 33994 ft | 440 kts | 285° |
| 2026-04-24 05:50 | 43.26405 | 25.01274 | 33996 ft | 441 kts | 286° |
| 2026-04-24 05:50 | 43.27658 | 24.93176 | 33992 ft | 440 kts | 285° |
| 2026-04-24 05:51 | 43.28912 | 24.85033 | 33982 ft | 441 kts | 285° |
| 2026-04-24 05:51 | 43.30161 | 24.76886 | 34011 ft | 441 kts | 285° |
| 2026-04-24 05:52 | 43.31403 | 24.68742 | 34009 ft | 441 kts | 285° |
| 2026-04-24 05:52 | 43.32640 | 24.60586 | 34009 ft | 441 kts | 285° |
| 2026-04-24 05:53 | 43.33872 | 24.52427 | 33986 ft | 442 kts | 285° |
| 2026-04-24 05:53 | 43.35118 | 24.44133 | 34000 ft | 442 kts | 285° |
| 2026-04-24 05:54 | 43.36354 | 24.35859 | 34001 ft | 442 kts | 285° |
| 2026-04-24 05:54 | 43.37583 | 24.27587 | 34001 ft | 442 kts | 285° |
| 2026-04-24 05:55 | 43.38809 | 24.19294 | 33995 ft | 443 kts | 285° |
| 2026-04-24 05:55 | 43.40028 | 24.11003 | 33998 ft | 443 kts | 285° |
| 2026-04-24 05:56 | 43.41243 | 24.02697 | 33992 ft | 443 kts | 285° |
| 2026-04-24 05:56 | 43.42453 | 23.94382 | 33997 ft | 443 kts | 285° |
| 2026-04-24 05:57 | 43.43658 | 23.86054 | 33995 ft | 444 kts | 285° |
| 2026-04-24 05:57 | 43.44847 | 23.77790 | 33990 ft | 444 kts | 285° |
| 2026-04-24 05:58 | 43.46042 | 23.69442 | 33990 ft | 444 kts | 285° |
| 2026-04-24 05:58 | 43.47197 | 23.61328 | 33984 ft | 445 kts | 285° |
| 2026-04-24 05:59 | 43.48393 | 23.52884 | 33985 ft | 445 kts | 285° |
| 2026-04-24 05:59 | 43.49564 | 23.44566 | 33980 ft | 445 kts | 285° |
| 2026-04-24 06:00 | 43.50733 | 23.36226 | 33987 ft | 446 kts | 285° |
| 2026-04-24 06:00 | 43.52257 | 23.28148 | 33982 ft | 439 kts | 296° |
| 2026-04-24 06:01 | 43.55217 | 23.20838 | 33986 ft | 434 kts | 306° |
| 2026-04-24 06:01 | 43.58436 | 23.13790 | 33980 ft | 435 kts | 306° |
| 2026-04-24 06:02 | 43.61637 | 23.06692 | 33977 ft | 436 kts | 306° |
| 2026-04-24 06:02 | 43.64809 | 22.99557 | 33984 ft | 436 kts | 306° |
| 2026-04-24 06:03 | 43.67974 | 22.92393 | 33980 ft | 437 kts | 306° |
| 2026-04-24 06:03 | 43.71113 | 22.85268 | 33981 ft | 437 kts | 306° |
| 2026-04-24 06:04 | 43.74297 | 22.78026 | 33982 ft | 438 kts | 306° |
| 2026-04-24 06:04 | 43.77435 | 22.70871 | 33972 ft | 438 kts | 306° |
| 2026-04-24 06:05 | 43.80588 | 22.63665 | 33987 ft | 438 kts | 306° |
| 2026-04-24 06:05 | 43.83733 | 22.56458 | 33986 ft | 438 kts | 306° |
| 2026-04-24 06:06 | 43.86877 | 22.49237 | 33986 ft | 438 kts | 305° |
| 2026-04-24 06:06 | 43.90016 | 22.42011 | 33984 ft | 437 kts | 306° |
| 2026-04-24 06:07 | 43.92577 | 22.34302 | 33996 ft | 444 kts | 294° |
| 2026-04-24 06:07 | 43.94545 | 22.26182 | 33991 ft | 445 kts | 293° |
| 2026-04-24 06:08 | 43.96496 | 22.18031 | 33997 ft | 445 kts | 293° |
| 2026-04-24 06:08 | 43.98471 | 22.09904 | 34002 ft | 445 kts | 293° |
| 2026-04-24 06:09 | 44.00463 | 22.01760 | 34007 ft | 445 kts | 293° |
| 2026-04-24 06:09 | 44.02454 | 21.93617 | 34023 ft | 446 kts | 293° |
| 2026-04-24 06:10 | 44.04442 | 21.85451 | 34020 ft | 446 kts | 293° |
| 2026-04-24 06:11 | 44.07422 | 21.73160 | 34025 ft | 448 kts | 293° |
| 2026-04-24 06:11 | 44.09387 | 21.65014 | 34023 ft | 448 kts | 293° |
| 2026-04-24 06:12 | 44.11363 | 21.56791 | 34032 ft | 448 kts | 293° |
| 2026-04-24 06:12 | 44.13331 | 21.48569 | 34034 ft | 448 kts | 293° |
| 2026-04-24 06:13 | 44.15293 | 21.40348 | 34042 ft | 448 kts | 293° |
| 2026-04-24 06:13 | 44.17253 | 21.32103 | 34042 ft | 449 kts | 293° |
| 2026-04-24 06:14 | 44.19209 | 21.23842 | 34043 ft | 449 kts | 293° |
| 2026-04-24 06:14 | 44.21164 | 21.15559 | 34036 ft | 450 kts | 292° |
| 2026-04-24 06:15 | 44.23112 | 21.07270 | 34042 ft | 450 kts | 292° |
| 2026-04-24 06:15 | 44.25053 | 20.98981 | 34039 ft | 450 kts | 292° |
| 2026-04-24 06:16 | 44.26991 | 20.90675 | 34050 ft | 450 kts | 292° |
| 2026-04-24 06:16 | 44.28597 | 20.83770 | 34046 ft | 450 kts | 292° |
| 2026-04-24 06:17 | 44.30524 | 20.75455 | 34045 ft | 450 kts | 292° |
| 2026-04-24 06:17 | 44.32444 | 20.67136 | 34055 ft | 450 kts | 292° |
| 2026-04-24 06:18 | 44.34358 | 20.58814 | 34051 ft | 450 kts | 292° |
| 2026-04-24 06:18 | 44.36267 | 20.50479 | 34060 ft | 450 kts | 292° |
| 2026-04-24 06:19 | 44.38172 | 20.42133 | 34055 ft | 451 kts | 292° |
| 2026-04-24 06:19 | 44.40070 | 20.33783 | 34062 ft | 451 kts | 292° |
| 2026-04-24 06:20 | 44.41963 | 20.25423 | 34055 ft | 451 kts | 292° |
| 2026-04-24 06:20 | 44.43850 | 20.17058 | 34060 ft | 451 kts | 292° |
| 2026-04-24 06:21 | 44.45733 | 20.08678 | 34064 ft | 451 kts | 292° |
| 2026-04-24 06:21 | 44.47609 | 20.00297 | 34066 ft | 451 kts | 292° |
| 2026-04-24 06:22 | 44.49478 | 19.91915 | 34065 ft | 451 kts | 292° |
| 2026-04-24 06:22 | 44.51148 | 19.84393 | 34066 ft | 452 kts | 292° |
| 2026-04-24 06:23 | 44.52984 | 19.76100 | 34068 ft | 452 kts | 292° |
| 2026-04-24 06:23 | 44.54857 | 19.67600 | 34071 ft | 452 kts | 292° |
| 2026-04-24 06:24 | 44.56720 | 19.59114 | 34070 ft | 453 kts | 292° |
| 2026-04-24 06:24 | 44.58568 | 19.50665 | 34082 ft | 453 kts | 291° |
| 2026-04-24 06:25 | 44.60410 | 19.42207 | 34083 ft | 453 kts | 291° |
| 2026-04-24 06:25 | 44.62255 | 19.33756 | 34084 ft | 452 kts | 292° |
| 2026-04-24 06:26 | 44.64183 | 19.25359 | 34085 ft | 452 kts | 293° |
| 2026-04-24 06:26 | 44.66135 | 19.16966 | 34087 ft | 452 kts | 293° |
| 2026-04-24 06:27 | 44.68075 | 19.08549 | 34086 ft | 453 kts | 292° |
| 2026-04-24 06:27 | 44.70001 | 19.00120 | 34094 ft | 453 kts | 292° |
| 2026-04-24 06:28 | 44.71919 | 18.91683 | 34098 ft | 453 kts | 292° |
| 2026-04-24 06:28 | 44.73830 | 18.83238 | 34104 ft | 454 kts | 292° |
| 2026-04-24 06:29 | 44.75726 | 18.74829 | 34106 ft | 454 kts | 292° |
| 2026-04-24 06:29 | 44.77629 | 18.66355 | 34105 ft | 455 kts | 292° |
| 2026-04-24 06:30 | 44.79542 | 18.57806 | 34095 ft | 455 kts | 292° |
| 2026-04-24 06:30 | 44.81423 | 18.49363 | 34096 ft | 455 kts | 292° |
| 2026-04-24 06:31 | 44.83312 | 18.40852 | 34102 ft | 455 kts | 292° |
| 2026-04-24 06:31 | 44.85193 | 18.32345 | 34104 ft | 455 kts | 292° |
| 2026-04-24 06:32 | 44.87070 | 18.23821 | 34098 ft | 455 kts | 292° |
| 2026-04-24 06:32 | 44.88014 | 18.19528 | 33570 ft | 461 kts | 292° |
| 2026-04-24 06:32 | 44.88959 | 18.15213 | 32976 ft | 459 kts | 292° |
| 2026-04-24 06:32 | 44.89889 | 18.10949 | 32572 ft | 452 kts | 292° |
| 2026-04-24 06:33 | 44.90806 | 18.06732 | 32088 ft | 448 kts | 292° |
| 2026-04-24 06:33 | 44.91712 | 18.02563 | 31638 ft | 444 kts | 292° |
| 2026-04-24 06:33 | 44.92613 | 17.98412 | 31185 ft | 440 kts | 292° |
| 2026-04-24 06:33 | 44.93505 | 17.94298 | 30744 ft | 436 kts | 292° |
| 2026-04-24 06:34 | 44.94386 | 17.90232 | 30302 ft | 432 kts | 292° |
| 2026-04-24 06:34 | 44.95259 | 17.86192 | 29812 ft | 428 kts | 292° |
| 2026-04-24 06:34 | 44.96122 | 17.82188 | 29341 ft | 424 kts | 292° |
| 2026-04-24 06:34 | 44.96973 | 17.78233 | 28896 ft | 419 kts | 292° |
| 2026-04-24 06:35 | 44.97811 | 17.74328 | 28444 ft | 414 kts | 292° |
| 2026-04-24 06:35 | 44.98643 | 17.70449 | 28016 ft | 410 kts | 292° |
| 2026-04-24 06:35 | 44.99462 | 17.66621 | 27578 ft | 406 kts | 292° |
| 2026-04-24 06:35 | 45.00276 | 17.62812 | 27142 ft | 402 kts | 292° |
| 2026-04-24 06:36 | 45.01081 | 17.59041 | 26713 ft | 399 kts | 291° |
| 2026-04-24 06:36 | 45.01877 | 17.55301 | 26280 ft | 396 kts | 292° |
| 2026-04-24 06:36 | 45.02666 | 17.51587 | 25858 ft | 393 kts | 291° |
| 2026-04-24 06:36 | 45.03403 | 17.48115 | 25473 ft | 390 kts | 291° |
| 2026-04-24 06:37 | 45.04208 | 17.44315 | 25039 ft | 388 kts | 291° |
| 2026-04-24 06:37 | 45.04971 | 17.40707 | 24629 ft | 385 kts | 291° |
| 2026-04-24 06:37 | 45.05720 | 17.37155 | 24225 ft | 383 kts | 291° |
| 2026-04-24 06:37 | 45.06503 | 17.33441 | 23805 ft | 381 kts | 291° |
| 2026-04-24 06:38 | 45.07251 | 17.29880 | 23320 ft | 378 kts | 291° |
| 2026-04-24 06:38 | 45.07994 | 17.26342 | 22874 ft | 376 kts | 291° |
| 2026-04-24 06:38 | 45.08740 | 17.22782 | 22440 ft | 372 kts | 291° |
| 2026-04-24 06:38 | 45.09480 | 17.19241 | 22023 ft | 370 kts | 291° |
| 2026-04-24 06:39 | 45.10204 | 17.15772 | 21606 ft | 367 kts | 291° |
| 2026-04-24 06:39 | 45.10924 | 17.12314 | 21196 ft | 365 kts | 291° |
| 2026-04-24 06:39 | 45.11639 | 17.08882 | 20796 ft | 362 kts | 291° |
| 2026-04-24 06:39 | 45.12349 | 17.05464 | 20389 ft | 361 kts | 291° |
| 2026-04-24 06:40 | 45.13053 | 17.02070 | 19994 ft | 359 kts | 291° |
| 2026-04-24 06:40 | 45.13754 | 16.98686 | 19598 ft | 357 kts | 291° |
| 2026-04-24 06:40 | 45.14450 | 16.95319 | 19202 ft | 356 kts | 291° |
| 2026-04-24 06:40 | 45.15145 | 16.91954 | 18811 ft | 355 kts | 291° |
| 2026-04-24 06:41 | 45.15836 | 16.88598 | 18400 ft | 355 kts | 291° |
| 2026-04-24 06:41 | 45.16525 | 16.85249 | 17949 ft | 354 kts | 291° |
| 2026-04-24 06:41 | 45.17210 | 16.81912 | 17535 ft | 352 kts | 291° |
| 2026-04-24 06:41 | 45.17892 | 16.78585 | 17137 ft | 350 kts | 291° |
| 2026-04-24 06:42 | 45.18570 | 16.75275 | 16739 ft | 348 kts | 291° |
| 2026-04-24 06:42 | 45.19240 | 16.71992 | 16354 ft | 346 kts | 291° |
| 2026-04-24 06:42 | 45.19959 | 16.68763 | 15964 ft | 340 kts | 298° |
| 2026-04-24 06:42 | 45.21219 | 16.66082 | 15641 ft | 326 kts | 318° |
| 2026-04-24 06:43 | 45.22864 | 16.63839 | 15258 ft | 322 kts | 322° |
| 2026-04-24 06:43 | 45.24510 | 16.61749 | 14862 ft | 321 kts | 322° |
| 2026-04-24 06:43 | 45.26172 | 16.59649 | 14487 ft | 319 kts | 322° |
| 2026-04-24 06:43 | 45.27822 | 16.57541 | 14109 ft | 318 kts | 321° |
| 2026-04-24 06:44 | 45.29456 | 16.55428 | 13699 ft | 317 kts | 321° |
| 2026-04-24 06:44 | 45.31075 | 16.53318 | 13278 ft | 315 kts | 321° |
| 2026-04-24 06:44 | 45.32679 | 16.51220 | 12951 ft | 311 kts | 321° |
| 2026-04-24 06:44 | 45.34238 | 16.49174 | 12820 ft | 300 kts | 321° |
| 2026-04-24 06:45 | 45.35605 | 16.46973 | 12670 ft | 298 kts | 303° |
| 2026-04-24 06:45 | 45.36255 | 16.44201 | 12572 ft | 297 kts | 281° |
| 2026-04-24 06:45 | 45.36133 | 16.41271 | 12322 ft | 302 kts | 260° |
| 2026-04-24 06:45 | 45.35282 | 16.38525 | 11996 ft | 309 kts | 237° |
| 2026-04-24 06:46 | 45.33880 | 16.36204 | 11696 ft | 310 kts | 230° |
| 2026-04-24 06:46 | 45.32441 | 16.34049 | 11380 ft | 310 kts | 230° |
| 2026-04-24 06:46 | 45.30908 | 16.31771 | 11043 ft | 310 kts | 230° |
| 2026-04-24 06:46 | 45.29434 | 16.29555 | 10731 ft | 308 kts | 230° |
| 2026-04-24 06:47 | 45.27969 | 16.27337 | 10446 ft | 307 kts | 230° |
| 2026-04-24 06:47 | 45.26520 | 16.25136 | 10286 ft | 301 kts | 230° |
| 2026-04-24 06:47 | 45.25132 | 16.22940 | 10016 ft | 296 kts | 239° |
| 2026-04-24 06:47 | 45.24354 | 16.20329 | 9688 ft | 284 kts | 266° |
| 2026-04-24 06:48 | 45.24426 | 16.17730 | 9423 ft | 273 kts | 289° |
| 2026-04-24 06:48 | 45.25193 | 16.15202 | 9125 ft | 264 kts | 308° |
| 2026-04-24 06:48 | 45.26392 | 16.13273 | 8837 ft | 259 kts | 319° |
| 2026-04-24 06:48 | 45.27708 | 16.11541 | 8543 ft | 257 kts | 320° |
| 2026-04-24 06:49 | 45.29027 | 16.09833 | 8268 ft | 256 kts | 320° |
| 2026-04-24 06:49 | 45.30333 | 16.08126 | 7988 ft | 254 kts | 320° |
| 2026-04-24 06:49 | 45.31619 | 16.06438 | 7805 ft | 250 kts | 319° |
| 2026-04-24 06:49 | 45.32887 | 16.04757 | 7603 ft | 249 kts | 319° |
| 2026-04-24 06:50 | 45.34155 | 16.03067 | 7422 ft | 249 kts | 319° |
| 2026-04-24 06:50 | 45.35403 | 16.01405 | 7229 ft | 249 kts | 319° |
| 2026-04-24 06:50 | 45.36683 | 15.99694 | 7045 ft | 249 kts | 318° |
| 2026-04-24 06:50 | 45.37941 | 15.98018 | 6845 ft | 247 kts | 318° |
| 2026-04-24 06:51 | 45.39178 | 15.96367 | 6673 ft | 246 kts | 318° |
| 2026-04-24 06:51 | 45.40442 | 15.94679 | 6483 ft | 246 kts | 317° |
| 2026-04-24 06:51 | 45.41675 | 15.93038 | 6294 ft | 246 kts | 317° |
| 2026-04-24 06:51 | 45.42944 | 15.91338 | 6107 ft | 249 kts | 317° |
| 2026-04-24 06:52 | 45.44193 | 15.89659 | 5906 ft | 251 kts | 317° |
| 2026-04-24 06:52 | 45.45418 | 15.88015 | 5717 ft | 252 kts | 317° |
| 2026-04-24 06:52 | 45.46701 | 15.86295 | 5533 ft | 255 kts | 317° |
| 2026-04-24 06:52 | 45.47994 | 15.84566 | 5312 ft | 253 kts | 316° |
| 2026-04-24 06:53 | 45.49278 | 15.82841 | 5111 ft | 248 kts | 316° |
| 2026-04-24 06:53 | 45.50504 | 15.81193 | 4925 ft | 244 kts | 316° |
| 2026-04-24 06:53 | 45.51726 | 15.79563 | 4849 ft | 234 kts | 316° |
| 2026-04-24 06:53 | 45.53059 | 15.78372 | 4677 ft | 224 kts | 346° |
| 2026-04-24 06:54 | 45.54525 | 15.78616 | 4558 ft | 209 kts | 27° |
| 2026-04-24 06:54 | 45.55701 | 15.79741 | 4504 ft | 196 kts | 33° |
| 2026-04-24 06:54 | 45.56776 | 15.80877 | 4331 ft | 190 kts | 37° |
| 2026-04-24 06:54 | 45.57803 | 15.82054 | 4015 ft | 191 kts | 39° |
| 2026-04-24 06:55 | 45.58783 | 15.83300 | 3811 ft | 185 kts | 44° |
| 2026-04-24 06:55 | 45.59675 | 15.84574 | 3670 ft | 181 kts | 46° |
| 2026-04-24 06:55 | 45.60554 | 15.85887 | 3553 ft | 185 kts | 47° |
| 2026-04-24 06:55 | 45.61429 | 15.87243 | 3405 ft | 186 kts | 50° |
| 2026-04-24 06:56 | 45.62304 | 15.88597 | 3267 ft | 184 kts | 47° |
| 2026-04-24 06:56 | 45.63193 | 15.89915 | 3115 ft | 184 kts | 47° |
| 2026-04-24 06:56 | 45.64053 | 15.91238 | 3011 ft | 182 kts | 48° |
| 2026-04-24 06:56 | 45.64905 | 15.92540 | 2784 ft | 175 kts | 48° |
| 2026-04-24 06:57 | 45.65698 | 15.93752 | 2560 ft | 160 kts | 48° |
| 2026-04-24 06:57 | 45.66441 | 15.94888 | 2350 ft | 155 kts | 48° |
| 2026-04-24 06:57 | 45.67170 | 15.96011 | 2127 ft | 155 kts | 48° |
| 2026-04-24 06:57 | 45.67887 | 15.97112 | 1919 ft | 149 kts | 48° |
| 2026-04-24 06:58 | 45.68597 | 15.98189 | 1730 ft | 150 kts | 47° |
| 2026-04-24 06:58 | 45.69318 | 15.99285 | 1526 ft | 151 kts | 47° |
| 2026-04-24 06:58 | 45.70047 | 16.00397 | 1299 ft | 156 kts | 47° |
| 2026-04-24 06:58 | 45.70790 | 16.01505 | 1089 ft | 152 kts | 45° |
| 2026-04-24 06:59 | 45.71507 | 16.02629 | 878 ft | 155 kts | 46° |
| 2026-04-24 06:59 | 45.72254 | 16.03758 | 678 ft | 157 kts | 45° |
| 2026-04-24 06:59 | 45.73000 | 16.04907 | 460 ft | 158 kts | 45° |
| 2026-04-24 06:59 | 45.73733 | 16.06025 | 363 ft | 145 kts | 46° |
| 2026-04-24 07:00 | 45.74299 | 16.06876 | 358 ft | 89 kts | 47° |
| 2026-04-24 07:00 | 45.74551 | 16.07266 | 357 ft | 37 kts | 48° |
| 2026-04-24 07:00 | 45.74675 | 16.07474 | 361 ft | 12 kts | 74° |
| 2026-04-24 07:00 | 45.74635 | 16.07570 | 358 ft | 12 kts | 133° |
| 2026-04-24 07:01 | 45.74602 | 16.07614 | 358 ft | 0 kts | 137° |
| 2026-04-24 07:02 | 45.74600 | 16.07617 | 358 ft | 1 kts | 137° |
| 2026-04-24 07:02 | 45.74585 | 16.07636 | 358 ft | 4 kts | 137° |
| 2026-04-24 07:02 | 45.74553 | 16.07678 | 358 ft | 8 kts | 136° |
| 2026-04-24 07:02 | 45.74504 | 16.07745 | 358 ft | 12 kts | 136° |
| 2026-04-24 07:03 | 45.74437 | 16.07837 | 358 ft | 15 kts | 138° |
| 2026-04-24 07:03 | 45.74347 | 16.07932 | 362 ft | 17 kts | 146° |
| 2026-04-24 07:03 | 45.74293 | 16.08002 | 358 ft | 4 kts | 137° |
| 2026-04-24 07:03 | 45.74285 | 16.08013 | 358 ft | 0 kts | 137° |